sensor_id;sensor_type;location;lat;lon;timestamp;temperature;humidity
23813;DHT22;12087;45.190;5.688;2023-05-10T00:04:52;14.60;99.90
23813;DHT22;12087;45.190;5.688;2023-05-10T00:10:15;14.50;99.90
23813;DHT22;12087;45.190;5.688;2023-05-10T00:15:38;14.40;99.90
23813;DHT22;12087;45.190;5.688;2023-05-10T00:21:00;14.30;99.90
23813;DHT22;12087;45.190;5.688;2023-05-10T00:26:23;14.30;99.90
23813;DHT22;12087;45.190;5.688;2023-05-10T00:31:46;14.20;99.90
23813;DHT22;12087;45.190;5.688;2023-05-10T00:37:08;14.20;99.90
23813;DHT22;12087;45.190;5.688;2023-05-10T00:42:32;14.20;99.90
23813;DHT22;12087;45.190;5.688;2023-05-10T00:47:54;14.20;99.90
23813;DHT22;12087;45.190;5.688;2023-05-10T00:53:17;14.10;99.90
23813;DHT22;12087;45.190;5.688;2023-05-10T00:58:40;14.10;99.90
23813;DHT22;12087;45.190;5.688;2023-05-10T01:04:02;14.10;99.90
23813;DHT22;12087;45.190;5.688;2023-05-10T01:09:25;14.00;99.90
23813;DHT22;12087;45.190;5.688;2023-05-10T01:14:49;13.90;99.90
23813;DHT22;12087;45.190;5.688;2023-05-10T01:20:12;13.80;99.90
23813;DHT22;12087;45.190;5.688;2023-05-10T01:25:56;13.80;99.90
23813;DHT22;12087;45.190;5.688;2023-05-10T01:31:54;13.80;99.90
23813;DHT22;12087;45.190;5.688;2023-05-10T01:37:27;13.80;99.90
23813;DHT22;12087;45.190;5.688;2023-05-10T01:42:54;13.80;99.90
23813;DHT22;12087;45.190;5.688;2023-05-10T01:48:22;13.80;99.90
23813;DHT22;12087;45.190;5.688;2023-05-10T01:53:46;13.80;99.90
23813;DHT22;12087;45.190;5.688;2023-05-10T01:59:13;13.80;99.90
23813;DHT22;12087;45.190;5.688;2023-05-10T02:04:39;13.80;99.90
23813;DHT22;12087;45.190;5.688;2023-05-10T02:10:04;13.80;99.90
23813;DHT22;12087;45.190;5.688;2023-05-10T02:15:27;13.80;99.90
23813;DHT22;12087;45.190;5.688;2023-05-10T02:20:52;13.80;99.90
23813;DHT22;12087;45.190;5.688;2023-05-10T02:26:16;13.80;99.90
23813;DHT22;12087;45.190;5.688;2023-05-10T02:31:39;13.80;99.90
23813;DHT22;12087;45.190;5.688;2023-05-10T02:37:05;13.80;99.90
23813;DHT22;12087;45.190;5.688;2023-05-10T02:42:29;13.80;99.90
23813;DHT22;12087;45.190;5.688;2023-05-10T02:47:53;13.80;99.90
23813;DHT22;12087;45.190;5.688;2023-05-10T02:53:20;13.80;99.90
23813;DHT22;12087;45.190;5.688;2023-05-10T02:58:44;13.80;99.90
23813;DHT22;12087;45.190;5.688;2023-05-10T03:04:06;13.80;99.90
23813;DHT22;12087;45.190;5.688;2023-05-10T03:09:30;13.80;99.90
23813;DHT22;12087;45.190;5.688;2023-05-10T03:15:00;13.80;99.90
23813;DHT22;12087;45.190;5.688;2023-05-10T03:20:29;13.80;99.90
23813;DHT22;12087;45.190;5.688;2023-05-10T03:25:54;13.80;99.90
23813;DHT22;12087;45.190;5.688;2023-05-10T03:31:17;13.70;99.90
23813;DHT22;12087;45.190;5.688;2023-05-10T03:36:40;13.70;99.90
23813;DHT22;12087;45.190;5.688;2023-05-10T03:42:04;13.60;99.90
23813;DHT22;12087;45.190;5.688;2023-05-10T03:47:26;13.60;99.90
23813;DHT22;12087;45.190;5.688;2023-05-10T03:52:49;13.60;99.90
23813;DHT22;12087;45.190;5.688;2023-05-10T03:58:13;13.50;99.90
23813;DHT22;12087;45.190;5.688;2023-05-10T04:03:35;13.50;99.90
23813;DHT22;12087;45.190;5.688;2023-05-10T04:08:58;13.50;99.90
23813;DHT22;12087;45.190;5.688;2023-05-10T04:14:26;13.50;99.90
23813;DHT22;12087;45.190;5.688;2023-05-10T04:19:48;13.40;99.90
23813;DHT22;12087;45.190;5.688;2023-05-10T04:25:10;13.40;99.90
23813;DHT22;12087;45.190;5.688;2023-05-10T04:30:35;13.40;99.90
23813;DHT22;12087;45.190;5.688;2023-05-10T04:35:57;13.40;99.90
23813;DHT22;12087;45.190;5.688;2023-05-10T04:41:19;13.30;99.90
23813;DHT22;12087;45.190;5.688;2023-05-10T04:46:43;13.30;99.90
23813;DHT22;12087;45.190;5.688;2023-05-10T04:52:05;13.20;99.90
23813;DHT22;12087;45.190;5.688;2023-05-10T04:57:27;13.10;99.90
23813;DHT22;12087;45.190;5.688;2023-05-10T05:02:51;13.10;99.90
23813;DHT22;12087;45.190;5.688;2023-05-10T05:08:14;13.00;99.90
23813;DHT22;12087;45.190;5.688;2023-05-10T05:13:36;13.00;99.90
23813;DHT22;12087;45.190;5.688;2023-05-10T05:19:01;13.00;99.90
23813;DHT22;12087;45.190;5.688;2023-05-10T05:24:23;12.90;99.90
23813;DHT22;12087;45.190;5.688;2023-05-10T05:29:45;13.00;99.90
23813;DHT22;12087;45.190;5.688;2023-05-10T05:35:09;13.10;99.90
23813;DHT22;12087;45.190;5.688;2023-05-10T05:40:31;13.00;99.90
23813;DHT22;12087;45.190;5.688;2023-05-10T05:45:54;13.00;99.90
23813;DHT22;12087;45.190;5.688;2023-05-10T05:51:19;13.10;99.90
23813;DHT22;12087;45.190;5.688;2023-05-10T05:56:42;13.10;99.90
23813;DHT22;12087;45.190;5.688;2023-05-10T06:02:05;13.20;99.90
23813;DHT22;12087;45.190;5.688;2023-05-10T06:07:28;13.30;99.90
23813;DHT22;12087;45.190;5.688;2023-05-10T06:12:51;13.30;99.90
23813;DHT22;12087;45.190;5.688;2023-05-10T06:18:14;13.30;99.90
23813;DHT22;12087;45.190;5.688;2023-05-10T06:23:38;13.30;99.90
23813;DHT22;12087;45.190;5.688;2023-05-10T06:29:00;13.30;99.90
23813;DHT22;12087;45.190;5.688;2023-05-10T06:34:23;13.30;99.90
23813;DHT22;12087;45.190;5.688;2023-05-10T06:39:46;13.20;99.90
23813;DHT22;12087;45.190;5.688;2023-05-10T06:45:09;13.20;99.90
23813;DHT22;12087;45.190;5.688;2023-05-10T06:50:33;13.20;99.90
23813;DHT22;12087;45.190;5.688;2023-05-10T06:55:56;13.20;99.90
23813;DHT22;12087;45.190;5.688;2023-05-10T07:01:19;13.30;99.90
23813;DHT22;12087;45.190;5.688;2023-05-10T07:06:41;13.30;99.90
23813;DHT22;12087;45.190;5.688;2023-05-10T07:12:05;13.30;99.90
23813;DHT22;12087;45.190;5.688;2023-05-10T07:17:27;13.40;99.90
23813;DHT22;12087;45.190;5.688;2023-05-10T07:22:49;13.40;99.90
23813;DHT22;12087;45.190;5.688;2023-05-10T07:28:13;13.40;99.90
23813;DHT22;12087;45.190;5.688;2023-05-10T07:33:35;13.40;99.90
23813;DHT22;12087;45.190;5.688;2023-05-10T07:38:57;13.40;99.90
23813;DHT22;12087;45.190;5.688;2023-05-10T07:44:21;13.40;99.90
23813;DHT22;12087;45.190;5.688;2023-05-10T07:49:43;13.40;99.90
23813;DHT22;12087;45.190;5.688;2023-05-10T07:55:07;13.40;99.90
23813;DHT22;12087;45.190;5.688;2023-05-10T08:00:30;13.50;99.90
23813;DHT22;12087;45.190;5.688;2023-05-10T08:05:53;13.40;99.90
23813;DHT22;12087;45.190;5.688;2023-05-10T08:11:15;13.40;99.90
23813;DHT22;12087;45.190;5.688;2023-05-10T08:16:39;13.40;99.90
23813;DHT22;12087;45.190;5.688;2023-05-10T08:22:01;13.50;99.90
23813;DHT22;12087;45.190;5.688;2023-05-10T08:27:23;13.50;99.90
23813;DHT22;12087;45.190;5.688;2023-05-10T08:32:47;13.60;99.90
23813;DHT22;12087;45.190;5.688;2023-05-10T08:38:09;13.80;99.90
23813;DHT22;12087;45.190;5.688;2023-05-10T08:43:31;13.90;99.90
23813;DHT22;12087;45.190;5.688;2023-05-10T08:48:58;14.10;99.90
23813;DHT22;12087;45.190;5.688;2023-05-10T08:54:24;14.20;99.90
23813;DHT22;12087;45.190;5.688;2023-05-10T08:59:47;14.50;99.90
23813;DHT22;12087;45.190;5.688;2023-05-10T09:05:11;14.90;99.90
23813;DHT22;12087;45.190;5.688;2023-05-10T09:10:33;15.20;99.90
23813;DHT22;12087;45.190;5.688;2023-05-10T09:15:56;15.50;99.90
23813;DHT22;12087;45.190;5.688;2023-05-10T09:21:21;15.80;99.90
23813;DHT22;12087;45.190;5.688;2023-05-10T09:26:46;16.00;99.90
23813;DHT22;12087;45.190;5.688;2023-05-10T09:32:10;16.20;99.90
23813;DHT22;12087;45.190;5.688;2023-05-10T09:37:34;16.50;99.90
23813;DHT22;12087;45.190;5.688;2023-05-10T09:42:57;16.70;99.90
23813;DHT22;12087;45.190;5.688;2023-05-10T09:48:23;16.90;99.90
23813;DHT22;12087;45.190;5.688;2023-05-10T09:53:47;17.10;99.90
23813;DHT22;12087;45.190;5.688;2023-05-10T09:59:12;17.00;99.90
23813;DHT22;12087;45.190;5.688;2023-05-10T10:04:39;16.80;99.90
23813;DHT22;12087;45.190;5.688;2023-05-10T10:10:03;16.60;99.90
23813;DHT22;12087;45.190;5.688;2023-05-10T10:15:26;16.50;99.90
23813;DHT22;12087;45.190;5.688;2023-05-10T10:20:48;16.50;99.90
23813;DHT22;12087;45.190;5.688;2023-05-10T10:26:12;16.70;99.90
23813;DHT22;12087;45.190;5.688;2023-05-10T10:31:38;17.20;99.90
23813;DHT22;12087;45.190;5.688;2023-05-10T10:37:04;17.20;99.90
23813;DHT22;12087;45.190;5.688;2023-05-10T10:42:46;17.20;99.90
23813;DHT22;12087;45.190;5.688;2023-05-10T10:48:23;17.60;99.90
23813;DHT22;12087;45.190;5.688;2023-05-10T10:53:48;18.00;99.90
23813;DHT22;12087;45.190;5.688;2023-05-10T10:59:11;18.30;99.90
23813;DHT22;12087;45.190;5.688;2023-05-10T11:04:41;18.80;99.90
23813;DHT22;12087;45.190;5.688;2023-05-10T11:10:07;19.00;99.90
23813;DHT22;12087;45.190;5.688;2023-05-10T11:15:32;19.30;99.90
23813;DHT22;12087;45.190;5.688;2023-05-10T11:20:57;18.90;99.90
23813;DHT22;12087;45.190;5.688;2023-05-10T11:26:20;18.60;99.90
23813;DHT22;12087;45.190;5.688;2023-05-10T11:31:48;18.50;99.90
23813;DHT22;12087;45.190;5.688;2023-05-10T11:37:10;17.90;99.90
23813;DHT22;12087;45.190;5.688;2023-05-10T11:42:32;17.60;99.90
23813;DHT22;12087;45.190;5.688;2023-05-10T11:47:57;17.50;99.90
23813;DHT22;12087;45.190;5.688;2023-05-10T11:53:20;17.10;99.90
23813;DHT22;12087;45.190;5.688;2023-05-10T11:58:42;16.80;99.90
23813;DHT22;12087;45.190;5.688;2023-05-10T12:04:06;16.70;99.90
23813;DHT22;12087;45.190;5.688;2023-05-10T12:09:28;16.70;99.90
23813;DHT22;12087;45.190;5.688;2023-05-10T12:14:51;16.70;99.90
23813;DHT22;12087;45.190;5.688;2023-05-10T12:20:18;16.80;99.90
23813;DHT22;12087;45.190;5.688;2023-05-10T12:25:41;16.70;99.90
23813;DHT22;12087;45.190;5.688;2023-05-10T12:31:04;16.80;99.90
23813;DHT22;12087;45.190;5.688;2023-05-10T12:36:28;17.00;99.90
23813;DHT22;12087;45.190;5.688;2023-05-10T12:41:51;17.60;99.90
23813;DHT22;12087;45.190;5.688;2023-05-10T12:47:13;18.20;99.90
23813;DHT22;12087;45.190;5.688;2023-05-10T12:52:36;18.40;99.90
23813;DHT22;12087;45.190;5.688;2023-05-10T12:57:59;18.10;99.90
23813;DHT22;12087;45.190;5.688;2023-05-10T13:03:21;18.80;99.90
23813;DHT22;12087;45.190;5.688;2023-05-10T13:13:50;19.60;99.90
23813;DHT22;12087;45.190;5.688;2023-05-10T13:19:13;19.90;99.90
23813;DHT22;12087;45.190;5.688;2023-05-10T13:24:35;20.40;99.90
23813;DHT22;12087;45.190;5.688;2023-05-10T13:29:59;20.20;99.90
23813;DHT22;12087;45.190;5.688;2023-05-10T13:35:21;20.30;99.90
23813;DHT22;12087;45.190;5.688;2023-05-10T13:40:43;20.40;99.90
23813;DHT22;12087;45.190;5.688;2023-05-10T13:46:07;20.50;99.90
23813;DHT22;12087;45.190;5.688;2023-05-10T13:51:29;20.70;97.00
23813;DHT22;12087;45.190;5.688;2023-05-10T13:56:52;20.80;97.60
23813;DHT22;12087;45.190;5.688;2023-05-10T14:02:16;20.60;95.90
23813;DHT22;12087;45.190;5.688;2023-05-10T14:07:38;20.70;95.70
23813;DHT22;12087;45.190;5.688;2023-05-10T14:13:00;20.30;96.30
23813;DHT22;12087;45.190;5.688;2023-05-10T14:18:25;20.00;96.70
23813;DHT22;12087;45.190;5.688;2023-05-10T14:23:47;20.10;96.30
23813;DHT22;12087;45.190;5.688;2023-05-10T14:29:09;20.10;97.50
23813;DHT22;12087;45.190;5.688;2023-05-10T14:34:33;19.90;95.10
23813;DHT22;12087;45.190;5.688;2023-05-10T14:39:55;19.80;95.60
23813;DHT22;12087;45.190;5.688;2023-05-10T14:45:17;19.70;95.20
23813;DHT22;12087;45.190;5.688;2023-05-10T14:50:42;19.70;95.40
23813;DHT22;12087;45.190;5.688;2023-05-10T14:56:04;19.60;97.40
23813;DHT22;12087;45.190;5.688;2023-05-10T15:01:29;19.40;94.60
23813;DHT22;12087;45.190;5.688;2023-05-10T15:06:53;19.30;95.20
23813;DHT22;12087;45.190;5.688;2023-05-10T15:12:20;19.20;96.30
23813;DHT22;12087;45.190;5.688;2023-05-10T15:17:42;18.70;97.10
23813;DHT22;12087;45.190;5.688;2023-05-10T15:23:05;18.70;98.30
23813;DHT22;12087;45.190;5.688;2023-05-10T15:28:27;18.70;99.80
23813;DHT22;12087;45.190;5.688;2023-05-10T15:33:50;18.60;97.10
23813;DHT22;12087;45.190;5.688;2023-05-10T15:39:14;18.50;98.00
23813;DHT22;12087;45.190;5.688;2023-05-10T15:44:37;18.40;99.20
23813;DHT22;12087;45.190;5.688;2023-05-10T15:49:59;18.10;98.20
23813;DHT22;12087;45.190;5.688;2023-05-10T15:55:23;17.80;99.80
23813;DHT22;12087;45.190;5.688;2023-05-10T16:00:45;17.70;99.80
23813;DHT22;12087;45.190;5.688;2023-05-10T16:06:07;17.50;98.80
23813;DHT22;12087;45.190;5.688;2023-05-10T16:11:31;17.40;99.30
23813;DHT22;12087;45.190;5.688;2023-05-10T16:16:53;17.60;99.00
23813;DHT22;12087;45.190;5.688;2023-05-10T16:22:15;17.60;99.50
23813;DHT22;12087;45.190;5.688;2023-05-10T16:27:39;17.60;99.10
23813;DHT22;12087;45.190;5.688;2023-05-10T16:33:03;17.60;99.80
23813;DHT22;12087;45.190;5.688;2023-05-10T16:38:25;17.60;98.80
23813;DHT22;12087;45.190;5.688;2023-05-10T16:43:49;17.60;97.50
23813;DHT22;12087;45.190;5.688;2023-05-10T16:49:11;17.50;99.90
23813;DHT22;12087;45.190;5.688;2023-05-10T16:54:33;17.50;98.80
23813;DHT22;12087;45.190;5.688;2023-05-10T16:59:57;17.50;99.10
23813;DHT22;12087;45.190;5.688;2023-05-10T17:05:19;17.40;99.10
23813;DHT22;12087;45.190;5.688;2023-05-10T17:10:41;17.30;99.90
23813;DHT22;12087;45.190;5.688;2023-05-10T17:16:05;17.10;99.90
23813;DHT22;12087;45.190;5.688;2023-05-10T17:21:27;17.00;99.90
23813;DHT22;12087;45.190;5.688;2023-05-10T17:26:49;16.90;99.90
23813;DHT22;12087;45.190;5.688;2023-05-10T17:32:13;16.70;99.90
23813;DHT22;12087;45.190;5.688;2023-05-10T17:37:35;16.50;99.90
23813;DHT22;12087;45.190;5.688;2023-05-10T17:42:58;16.40;99.90
23813;DHT22;12087;45.190;5.688;2023-05-10T17:48:21;16.30;99.90
23813;DHT22;12087;45.190;5.688;2023-05-10T17:53:43;16.30;99.90
23813;DHT22;12087;45.190;5.688;2023-05-10T17:59:06;16.20;99.90
23813;DHT22;12087;45.190;5.688;2023-05-10T18:04:30;16.20;99.90
23813;DHT22;12087;45.190;5.688;2023-05-10T18:09:52;16.10;99.90
23813;DHT22;12087;45.190;5.688;2023-05-10T18:15:14;16.00;99.90
23813;DHT22;12087;45.190;5.688;2023-05-10T18:20:38;16.00;99.90
23813;DHT22;12087;45.190;5.688;2023-05-10T18:26:01;15.90;99.90
23813;DHT22;12087;45.190;5.688;2023-05-10T18:31:23;15.90;99.90
23813;DHT22;12087;45.190;5.688;2023-05-10T18:36:47;15.80;99.90
23813;DHT22;12087;45.190;5.688;2023-05-10T18:42:09;15.80;99.90
23813;DHT22;12087;45.190;5.688;2023-05-10T18:47:31;15.70;99.90
23813;DHT22;12087;45.190;5.688;2023-05-10T18:52:55;15.70;99.90
23813;DHT22;12087;45.190;5.688;2023-05-10T18:58:17;15.60;99.90
23813;DHT22;12087;45.190;5.688;2023-05-10T19:03:40;15.60;99.90
23813;DHT22;12087;45.190;5.688;2023-05-10T19:09:03;15.60;99.90
23813;DHT22;12087;45.190;5.688;2023-05-10T19:14:26;15.50;99.90
23813;DHT22;12087;45.190;5.688;2023-05-10T19:19:48;15.40;99.90
23813;DHT22;12087;45.190;5.688;2023-05-10T19:25:12;15.40;99.90
23813;DHT22;12087;45.190;5.688;2023-05-10T19:30:36;15.30;99.90
23813;DHT22;12087;45.190;5.688;2023-05-10T19:35:58;15.20;99.90
23813;DHT22;12087;45.190;5.688;2023-05-10T19:41:22;15.10;99.90
23813;DHT22;12087;45.190;5.688;2023-05-10T19:46:44;15.10;99.90
23813;DHT22;12087;45.190;5.688;2023-05-10T19:52:06;15.00;99.90
23813;DHT22;12087;45.190;5.688;2023-05-10T19:57:31;15.00;99.90
23813;DHT22;12087;45.190;5.688;2023-05-10T20:02:54;14.90;99.90
23813;DHT22;12087;45.190;5.688;2023-05-10T20:08:16;14.80;99.90
23813;DHT22;12087;45.190;5.688;2023-05-10T20:13:39;14.70;99.90
23813;DHT22;12087;45.190;5.688;2023-05-10T20:19:02;14.70;99.90
23813;DHT22;12087;45.190;5.688;2023-05-10T20:24:24;14.70;99.90
23813;DHT22;12087;45.190;5.688;2023-05-10T20:29:47;14.60;99.90
23813;DHT22;12087;45.190;5.688;2023-05-10T20:35:10;14.60;99.90
23813;DHT22;12087;45.190;5.688;2023-05-10T20:40:32;14.60;99.90
23813;DHT22;12087;45.190;5.688;2023-05-10T20:45:57;14.50;99.90
23813;DHT22;12087;45.190;5.688;2023-05-10T20:51:25;14.50;99.90
23813;DHT22;12087;45.190;5.688;2023-05-10T20:56:49;14.50;99.90
23813;DHT22;12087;45.190;5.688;2023-05-10T21:02:13;14.40;99.90
23813;DHT22;12087;45.190;5.688;2023-05-10T21:07:35;14.40;99.90
23813;DHT22;12087;45.190;5.688;2023-05-10T21:12:58;14.40;99.90
23813;DHT22;12087;45.190;5.688;2023-05-10T21:18:22;14.40;99.90
23813;DHT22;12087;45.190;5.688;2023-05-10T21:23:45;14.40;99.90
23813;DHT22;12087;45.190;5.688;2023-05-10T21:29:07;14.40;99.90
23813;DHT22;12087;45.190;5.688;2023-05-10T21:34:31;14.40;99.90
23813;DHT22;12087;45.190;5.688;2023-05-10T21:39:53;14.40;99.90
23813;DHT22;12087;45.190;5.688;2023-05-10T21:45:15;14.40;99.90
23813;DHT22;12087;45.190;5.688;2023-05-10T21:50:39;14.40;99.90
23813;DHT22;12087;45.190;5.688;2023-05-10T21:56:03;14.40;99.90
23813;DHT22;12087;45.190;5.688;2023-05-10T22:01:26;14.40;99.90
23813;DHT22;12087;45.190;5.688;2023-05-10T22:06:50;14.30;99.90
23813;DHT22;12087;45.190;5.688;2023-05-10T22:12:12;14.30;99.90
23813;DHT22;12087;45.190;5.688;2023-05-10T22:17:34;14.30;99.90
23813;DHT22;12087;45.190;5.688;2023-05-10T22:22:58;14.30;99.90
23813;DHT22;12087;45.190;5.688;2023-05-10T22:28:20;14.30;99.90
23813;DHT22;12087;45.190;5.688;2023-05-10T22:33:42;14.30;99.90
23813;DHT22;12087;45.190;5.688;2023-05-10T22:39:06;14.20;99.90
23813;DHT22;12087;45.190;5.688;2023-05-10T22:44:28;14.20;99.90
23813;DHT22;12087;45.190;5.688;2023-05-10T22:49:51;14.10;99.90
23813;DHT22;12087;45.190;5.688;2023-05-10T22:55:16;14.10;99.90
23813;DHT22;12087;45.190;5.688;2023-05-10T23:00:38;14.10;99.90
23813;DHT22;12087;45.190;5.688;2023-05-10T23:06:01;14.10;99.90
23813;DHT22;12087;45.190;5.688;2023-05-10T23:11:24;14.00;99.90
23813;DHT22;12087;45.190;5.688;2023-05-10T23:16:46;13.90;99.90
23813;DHT22;12087;45.190;5.688;2023-05-10T23:22:08;13.90;99.90
23813;DHT22;12087;45.190;5.688;2023-05-10T23:27:32;13.80;99.90
23813;DHT22;12087;45.190;5.688;2023-05-10T23:32:54;13.80;99.90
23813;DHT22;12087;45.190;5.688;2023-05-10T23:38:16;13.80;99.90
23813;DHT22;12087;45.190;5.688;2023-05-10T23:43:40;13.70;99.90
23813;DHT22;12087;45.190;5.688;2023-05-10T23:49:02;13.70;99.90
23813;DHT22;12087;45.190;5.688;2023-05-10T23:54:24;13.60;99.90
23813;DHT22;12087;45.190;5.688;2023-05-10T23:59:48;13.60;99.90
